Aeroporto :
LOGIN :

Iscrizione | Disclaimer

   EN    FR    IT 

 










Sommario :    VFR   VFR Marginale   IFR   IFR Intensivo   IFR Molto Intensivo
Visibilità : 
Base nubi : 
>= 8 km
>= 3000ft
5 / 8 km
1000 / 3000 ft
1500m / 5 km
500 / 1000 ft
800 / 1500m
200 / 500 ft
< 800m
< 200 ft
Simboli :   Temporali  Nebbia  Neve Forte  Precipitazioni Forti  Vento > 20 kt
SIGMETs :   Varie  Temporali  Ghiacco  Turbolenza  Onda orograficha  Ceneri Vulcaniche






- Altitudine del aeroporto : 506 ft
- Codice IATA : GOT


ESGG - Landvetter

ULTIMO METAR :
  • 210320Z 24019KT 9000 OVC003 05/04 Q1027 R21/29//95

METARs OBSOLETI :
  • 210250Z 23020KT 9000 OVC003 05/04 Q1027 R21/29//95
  • 210220Z 24018KT 7000 BR OVC002 05/04 Q1028 R21/29//95
  • 210150Z 24017KT 4000 BR OVC003 05/04 Q1028 R21/29//95
  • 210120Z 24018KT 6000 BR OVC003 05/04 Q1029 R21/29//95
  • 210050Z 24015KT 5000 BR OVC003 05/04 Q1029 R21/29//95

TAF TAF ESGG
Valido dal 21 a 00 ore il 22 a 00 ore UTC


202330Z 2100/2124 24016G28KT 9999 OVC006
TEMPO 2100/2106 BKN003
PROB40 2106/2113 BKN012
BECMG 2110/2112 27014KT
BECMG 2113/2115 SCT015



MetMap, La meteo Aeronautica in un colpo d'occhio ! - Copyright ORBIFLY Dicembre 2007 - Disclaimer

ORBIFLY MET'MAP TEAM :

Programmazione e sviluppo : Alexandra Zaïnal
Concezione : Baudouin d'Aumeries
Aiuto per la programmazione : Marc-Olivier Méhu
Supporto tecnico e logistico : Manuel Goepfert
Aiuto per la traduzione : Arnaldo La Scala

Contatto : metmap@orbifly.com




FONTI E CREDITI :

   NOAA